Time;durP1;ratioP1;P1;durP2;ratioP2;P2;SDS_P1;SDS_P2;PMS_P1;PMS_P2;Temp;Humidity;BMP_temperature;BMP_pressure;BME280_temperature;BME280_humidity;BME280_pressure;Samples;Min_cycle;Max_cycle;Signal;HPM_P1;HPM_P2
2023/07/04 00:01:45;;;;;;;10.07;6.78;;;20.20;99.90;;;;;;5071084;28;20743;-69
2023/07/04 00:04:13;;;;;;;8.65;7.68;;;20.20;99.90;;;;;;5057100;28;20623;-69
2023/07/04 00:06:42;;;;;;;9.25;7.90;;;20.10;99.90;;;;;;5054074;28;20234;-69
2023/07/04 00:09:09;;;;;;;7.93;6.45;;;20.10;99.90;;;;;;5066028;28;20216;-70
2023/07/04 00:11:36;;;;;;;7.07;5.72;;;20.10;99.90;;;;;;5073395;28;20669;-69
2023/07/04 00:14:04;;;;;;;6.60;4.88;;;20.10;99.90;;;;;;5059724;28;20553;-68
2023/07/04 00:16:31;;;;;;;7.55;4.70;;;20.10;99.90;;;;;;5073735;28;20206;-67
2023/07/04 00:18:58;;;;;;;6.07;5.28;;;20.10;99.90;;;;;;5073156;28;20693;-72
2023/07/04 00:21:26;;;;;;;6.93;4.78;;;20.00;99.90;;;;;;5062395;28;20285;-75
2023/07/04 00:23:54;;;;;;;4.75;4.30;;;20.00;99.90;;;;;;5070086;28;20292;-76
2023/07/04 00:26:23;;;;;;;6.25;3.97;;;20.00;99.90;;;;;;5073152;28;20238;-75
2023/07/04 00:28:50;;;;;;;5.20;4.70;;;19.90;99.90;;;;;;5072692;28;20674;-68
2023/07/04 00:31:19;;;;;;;6.07;4.95;;;19.90;99.90;;;;;;5072618;28;20234;-68
2023/07/04 00:33:47;;;;;;;5.05;4.00;;;19.90;99.90;;;;;;5072963;28;20249;-69
2023/07/04 00:36:17;;;;;;;4.70;4.25;;;19.80;99.90;;;;;;5072882;28;20287;-82
2023/07/04 00:38:44;;;;;;;6.80;4.50;;;19.90;99.90;;;;;;5060225;28;20213;-80
2023/07/04 00:41:16;;;;;;;7.35;5.05;;;19.80;99.90;;;;;;5071545;28;20265;-68
2023/07/04 00:43:56;;;;;;;5.82;4.45;;;19.90;99.90;;;;;;5072730;28;20744;-68
2023/07/04 00:46:28;;;;;;;6.38;4.88;;;19.80;99.90;;;;;;5072560;28;20214;-76
2023/07/04 00:48:56;;;;;;;5.55;4.75;;;19.70;99.90;;;;;;5072958;28;20283;-70
2023/07/04 00:51:23;;;;;;;6.10;3.80;;;19.80;99.90;;;;;;5072340;28;20214;-67
2023/07/04 00:53:54;;;;;;;4.90;4.28;;;19.80;99.90;;;;;;5073054;28;20291;-68
2023/07/04 00:56:25;;;;;;;7.15;4.75;;;19.70;99.90;;;;;;5072354;28;20198;-69
2023/07/04 00:58:53;;;;;;;5.70;4.03;;;19.60;99.90;;;;;;5072126;28;20689;-67
2023/07/04 01:01:20;;;;;;;4.38;3.88;;;19.60;99.90;;;;;;5071906;28;20524;-69
2023/07/04 01:03:47;;;;;;;4.30;3.70;;;19.60;99.90;;;;;;5072639;28;20295;-67
2023/07/04 01:06:21;;;;;;;7.15;3.92;;;19.70;99.90;;;;;;5072241;28;20237;-78
2023/07/04 01:08:56;;;;;;;4.45;4.05;;;19.60;99.90;;;;;;5072400;28;20251;-67
2023/07/04 01:11:34;;;;;;;5.53;4.55;;;19.70;99.90;;;;;;5070869;28;20217;-70
2023/07/04 01:14:03;;;;;;;4.72;4.22;;;19.60;99.90;;;;;;5059657;28;20230;-73
2023/07/04 01:16:31;;;;;;;4.93;4.35;;;19.60;99.90;;;;;;5072094;28;20213;-69
2023/07/04 01:18:59;;;;;;;5.53;4.25;;;19.50;99.90;;;;;;5072582;28;20235;-68
2023/07/04 01:21:28;;;;;;;5.78;4.22;;;19.40;99.90;;;;;;5072392;28;20299;-68
2023/07/04 01:24:06;;;;;;;5.07;4.57;;;19.50;99.90;;;;;;5072306;28;20202;-77
2023/07/04 01:26:38;;;;;;;5.22;4.25;;;19.50;99.90;;;;;;5072043;28;20202;-75
2023/07/04 01:29:09;;;;;;;7.95;4.97;;;19.50;99.90;;;;;;5071254;28;20256;-67
2023/07/04 01:31:37;;;;;;;5.20;4.70;;;19.40;99.90;;;;;;5071881;28;20251;-78
2023/07/04 01:34:05;;;;;;;6.70;4.22;;;19.30;99.90;;;;;;5071436;28;20241;-68
2023/07/04 01:36:37;;;;;;;5.10;4.55;;;19.20;99.90;;;;;;5072005;28;20574;-68
2023/07/04 01:39:05;;;;;;;4.55;4.00;;;19.00;99.90;;;;;;5071287;28;20308;-68
2023/07/04 01:41:32;;;;;;;5.68;4.38;;;19.10;99.90;;;;;;5072104;28;20291;-75
2023/07/04 01:44:03;;;;;;;8.50;4.40;;;19.20;99.90;;;;;;5071572;28;20237;-69
2023/07/04 01:46:31;;;;;;;4.30;3.78;;;19.30;99.90;;;;;;5071445;28;20241;-75
2023/07/04 01:48:58;;;;;;;6.10;4.50;;;19.20;99.90;;;;;;5071932;28;20232;-69
2023/07/04 01:51:28;;;;;;;5.70;4.45;;;19.20;99.90;;;;;;5071466;28;20696;-69
2023/07/04 01:53:55;;;;;;;6.55;4.90;;;19.20;99.90;;;;;;5071941;28;20202;-77
2023/07/04 01:56:22;;;;;;;5.03;4.05;;;19.10;99.90;;;;;;5071659;28;20242;-73
2023/07/04 01:58:49;;;;;;;5.13;4.15;;;19.00;99.90;;;;;;5071563;28;20202;-73
2023/07/04 02:01:17;;;;;;;5.32;3.88;;;18.90;99.90;;;;;;5070684;28;20249;-74
2023/07/04 02:03:44;;;;;;;6.72;4.60;;;18.90;99.90;;;;;;5071461;28;20245;-67
2023/07/04 02:06:11;;;;;;;6.38;5.25;;;19.00;99.90;;;;;;5070811;28;20242;-70
2023/07/04 02:08:38;;;;;;;5.00;4.45;;;19.10;99.90;;;;;;5071298;28;20206;-68
2023/07/04 02:11:05;;;;;;;5.18;4.47;;;18.80;99.90;;;;;;5070874;28;20238;-68
2023/07/04 02:13:32;;;;;;;6.00;4.88;;;18.90;99.90;;;;;;5057321;28;20242;-68
2023/07/04 02:15:59;;;;;;;4.75;4.20;;;19.00;99.90;;;;;;5071221;28;20242;-70
2023/07/04 02:18:28;;;;;;;4.85;4.35;;;19.00;99.90;;;;;;5070833;28;20260;-75
2023/07/04 02:20:54;;;;;;;5.55;5.03;;;18.90;99.90;;;;;;5071220;28;20626;-68
2023/07/04 02:23:21;;;;;;;6.40;4.03;;;18.90;99.90;;;;;;5070691;28;20683;-70
2023/07/04 02:25:49;;;;;;;8.20;4.47;;;19.00;99.90;;;;;;5071037;28;20241;-69
2023/07/04 02:28:16;;;;;;;4.38;3.70;;;19.10;99.90;;;;;;5070847;28;20208;-69
2023/07/04 02:30:53;;;;;;;5.13;4.13;;;19.10;99.90;;;;;;5070183;28;20234;-71
2023/07/04 02:33:20;;;;;;;8.10;4.63;;;19.20;99.90;;;;;;5070491;28;20707;-70
2023/07/04 02:35:49;;;;;;;4.38;3.47;;;19.20;99.90;;;;;;5070842;28;20347;-69
2023/07/04 02:38:17;;;;;;;7.75;5.05;;;19.30;99.90;;;;;;5070720;28;20242;-71
2023/07/04 02:40:45;;;;;;;6.28;4.25;;;19.40;99.90;;;;;;5070875;28;20198;-70
2023/07/04 02:43:12;;;;;;;4.68;3.58;;;19.40;99.90;;;;;;5070104;28;20237;-77
2023/07/04 02:45:40;;;;;;;3.80;3.38;;;19.50;99.90;;;;;;5070367;28;20236;-69
2023/07/04 02:48:07;;;;;;;6.35;4.90;;;19.60;99.90;;;;;;5070319;28;20641;-70
2023/07/04 02:50:34;;;;;;;4.57;3.88;;;19.60;99.90;;;;;;5070401;28;20554;-69
2023/07/04 02:53:02;;;;;;;4.90;4.07;;;19.50;99.90;;;;;;5070829;28;20237;-70
2023/07/04 02:55:30;;;;;;;5.32;4.78;;;19.60;99.90;;;;;;5070965;28;20205;-68
2023/07/04 02:57:56;;;;;;;6.68;4.53;;;19.60;99.90;;;;;;5070552;28;20694;-67
2023/07/04 03:00:24;;;;;;;5.13;4.63;;;19.70;99.90;;;;;;5070490;28;20286;-80
2023/07/04 03:02:51;;;;;;;7.38;4.43;;;19.70;99.90;;;;;;5070337;28;20229;-67
2023/07/04 03:05:18;;;;;;;6.00;4.00;;;19.80;99.90;;;;;;5070337;28;20206;-67
2023/07/04 03:07:45;;;;;;;6.03;5.03;;;19.80;99.90;;;;;;5070573;28;20280;-67
2023/07/04 03:10:13;;;;;;;5.63;3.97;;;19.90;99.90;;;;;;5070242;28;20257;-79
2023/07/04 03:12:40;;;;;;;6.25;4.68;;;19.90;99.90;;;;;;5058919;28;20253;-66
2023/07/04 03:15:08;;;;;;;10.23;7.20;;;19.90;99.90;;;;;;5067161;28;20234;-66
2023/07/04 03:17:35;;;;;;;6.88;5.35;;;19.80;99.90;;;;;;5066268;28;20713;-66
2023/07/04 03:20:08;;;;;;;5.05;4.45;;;19.80;99.90;;;;;;5070259;28;20205;-67
2023/07/04 03:22:35;;;;;;;6.18;3.50;;;19.90;99.90;;;;;;5070379;28;20229;-72
2023/07/04 03:25:02;;;;;;;5.65;3.75;;;19.90;99.90;;;;;;5069978;28;20256;-70
2023/07/04 03:27:30;;;;;;;6.28;4.45;;;20.00;99.90;;;;;;5069712;28;20259;-72
2023/07/04 03:29:57;;;;;;;4.30;3.50;;;19.90;99.90;;;;;;5070870;28;20241;-72
2023/07/04 03:32:24;;;;;;;6.60;4.95;;;20.00;99.90;;;;;;5070233;28;20226;-81
2023/07/04 03:34:51;;;;;;;5.03;4.45;;;20.00;99.90;;;;;;5070250;28;20297;-72
2023/07/04 03:37:18;;;;;;;3.45;3.03;;;20.00;99.90;;;;;;5071770;28;20296;-68
2023/07/04 03:39:45;;;;;;;6.40;4.38;;;20.10;99.90;;;;;;5074250;28;20643;-70
2023/07/04 03:42:12;;;;;;;5.45;4.10;;;20.10;99.90;;;;;;5073651;28;20260;-82
2023/07/04 03:44:40;;;;;;;7.88;4.53;;;20.00;99.90;;;;;;5074521;28;20234;-69
2023/07/04 03:47:07;;;;;;;5.25;4.75;;;20.00;99.90;;;;;;5073639;28;20241;-68
2023/07/04 03:49:34;;;;;;;5.93;4.28;;;20.00;99.90;;;;;;5074229;28;20246;-69
2023/07/04 03:52:01;;;;;;;4.20;3.80;;;20.00;99.90;;;;;;5073733;28;20240;-68
2023/07/04 03:54:28;;;;;;;4.97;4.47;;;20.10;99.90;;;;;;5074283;28;20248;-69
2023/07/04 03:56:55;;;;;;;5.13;4.35;;;20.10;99.90;;;;;;5073996;28;20248;-69
2023/07/04 03:59:22;;;;;;;5.10;4.35;;;20.00;99.90;;;;;;5073416;28;20233;-76
2023/07/04 04:01:50;;;;;;;4.65;3.85;;;20.00;99.90;;;;;;5073620;28;20237;-68
2023/07/04 04:04:17;;;;;;;4.72;4.32;;;20.00;99.90;;;;;;5073343;28;20358;-69
2023/07/04 04:06:45;;;;;;;4.38;4.03;;;20.00;99.90;;;;;;5073521;28;20287;-66
2023/07/04 04:09:12;;;;;;;4.78;4.38;;;19.90;99.90;;;;;;5073120;28;20563;-67
2023/07/04 04:11:39;;;;;;;4.60;4.15;;;19.90;99.90;;;;;;5071094;28;20230;-76
2023/07/04 04:14:05;;;;;;;4.60;4.05;;;19.90;99.90;;;;;;5062204;28;20245;-68
2023/07/04 04:16:32;;;;;;;6.32;4.43;;;19.90;99.90;;;;;;5073223;28;20248;-68
2023/07/04 04:19:01;;;;;;;6.03;4.28;;;20.00;99.90;;;;;;5073742;28;20297;-69
2023/07/04 04:21:28;;;;;;;5.82;4.20;;;20.00;99.90;;;;;;5073709;28;20210;-69
2023/07/04 04:23:55;;;;;;;4.68;4.25;;;20.00;99.90;;;;;;5073756;28;20261;-69
2023/07/04 04:26:23;;;;;;;7.05;4.88;;;20.00;99.90;;;;;;5072381;28;20238;-69
2023/07/04 04:28:50;;;;;;;4.45;3.45;;;19.90;99.90;;;;;;5073064;28;20206;-69
2023/07/04 04:31:18;;;;;;;4.88;4.38;;;20.00;99.90;;;;;;5073051;28;20324;-68
2023/07/04 04:33:46;;;;;;;7.32;4.38;;;20.00;99.90;;;;;;5072730;28;20225;-69
2023/07/04 04:36:17;;;;;;;4.53;4.10;;;20.10;99.90;;;;;;5072874;28;20753;-68
2023/07/04 04:38:44;;;;;;;5.57;5.07;;;19.80;99.90;;;;;;5073003;28;20222;-67
2023/07/04 04:41:12;;;;;;;5.38;4.72;;;19.70;99.90;;;;;;5072505;28;20245;-71
2023/07/04 04:43:39;;;;;;;5.72;4.32;;;19.70;99.90;;;;;;5072541;28;20234;-68
2023/07/04 04:46:06;;;;;;;4.55;4.07;;;19.70;99.90;;;;;;5070371;28;20238;-75
2023/07/04 04:48:35;;;;;;;5.43;4.28;;;19.70;99.90;;;;;;5071248;28;20237;-76
2023/07/04 04:51:07;;;;;;;5.70;4.55;;;19.90;99.90;;;;;;5057035;28;20738;-67
2023/07/04 04:53:35;;;;;;;5.40;4.85;;;19.90;99.90;;;;;;5053402;28;20583;-75
2023/07/04 04:56:02;;;;;;;7.20;4.88;;;19.90;99.90;;;;;;5055127;28;20207;-70
2023/07/04 04:58:29;;;;;;;4.90;4.30;;;20.00;99.90;;;;;;5058308;28;20238;-68
2023/07/04 05:00:56;;;;;;;5.25;4.65;;;19.90;99.90;;;;;;5057583;28;20241;-68
2023/07/04 05:03:24;;;;;;;5.28;4.20;;;19.90;99.90;;;;;;5054881;28;20721;-69
2023/07/04 05:05:51;;;;;;;6.72;5.07;;;19.90;99.90;;;;;;5059098;28;20685;-68
2023/07/04 05:08:18;;;;;;;11.27;5.00;;;19.90;99.90;;;;;;5057193;28;20300;-71
2023/07/04 05:10:46;;;;;;;8.80;5.05;;;19.80;99.90;;;;;;5060521;28;20315;-67
2023/07/04 05:13:13;;;;;;;6.38;4.68;;;19.90;99.90;;;;;;5057521;28;20280;-67
2023/07/04 05:15:40;;;;;;;5.13;4.63;;;20.00;99.90;;;;;;5063695;28;20368;-67
2023/07/04 05:18:07;;;;;;;5.18;4.20;;;20.00;99.90;;;;;;5063988;28;20249;-68
2023/07/04 05:20:34;;;;;;;9.80;4.85;;;20.10;99.90;;;;;;5065009;28;20663;-77
2023/07/04 05:23:02;;;;;;;11.88;4.95;;;20.10;99.90;;;;;;5061626;28;20258;-68
2023/07/04 05:25:29;;;;;;;8.38;5.55;;;20.10;99.90;;;;;;5053347;28;20635;-69
2023/07/04 05:27:57;;;;;;;4.30;3.85;;;20.20;99.90;;;;;;5056558;28;20256;-69
2023/07/04 05:30:25;;;;;;;4.85;4.22;;;20.30;99.90;;;;;;5056461;28;20239;-70
2023/07/04 05:32:52;;;;;;;5.68;4.22;;;20.30;99.90;;;;;;5064155;28;20272;-67
2023/07/04 05:35:19;;;;;;;4.47;4.07;;;20.40;99.90;;;;;;5066158;28;20245;-70
2023/07/04 05:37:46;;;;;;;6.93;4.95;;;20.40;99.90;;;;;;5065577;28;20307;-69
2023/07/04 05:40:13;;;;;;;5.22;4.30;;;20.50;99.90;;;;;;5072527;28;20252;-69
2023/07/04 05:42:40;;;;;;;4.85;4.45;;;20.50;99.90;;;;;;5064248;28;20286;-72
2023/07/04 05:45:09;;;;;;;5.43;4.65;;;20.50;99.90;;;;;;5069810;28;20313;-77
2023/07/04 05:47:36;;;;;;;6.43;4.75;;;20.60;99.90;;;;;;5064353;28;20694;-76
2023/07/04 05:50:03;;;;;;;5.68;5.05;;;20.70;99.90;;;;;;5067259;28;20238;-68
2023/07/04 05:52:31;;;;;;;5.07;4.60;;;20.80;99.90;;;;;;5064513;28;20214;-72
2023/07/04 05:55:00;;;;;;;6.60;5.13;;;20.80;99.90;;;;;;5068628;28;20749;-72
2023/07/04 05:57:30;;;;;;;5.88;4.57;;;20.80;99.90;;;;;;5067202;28;20289;-71
2023/07/04 05:59:57;;;;;;;6.00;4.70;;;20.90;99.90;;;;;;5057547;28;20202;-73
2023/07/04 06:02:26;;;;;;;7.82;5.68;;;21.00;99.90;;;;;;5068912;28;20202;-74
2023/07/04 06:04:53;;;;;;;4.32;3.92;;;21.10;99.90;;;;;;5069485;28;20289;-76
2023/07/04 06:07:20;;;;;;;5.10;4.60;;;20.90;99.90;;;;;;5069628;28;20242;-83
2023/07/04 06:09:47;;;;;;;6.05;4.32;;;20.80;99.90;;;;;;5065357;28;20637;-72
2023/07/04 06:12:13;;;;;;;5.40;4.70;;;20.90;99.90;;;;;;5052446;28;20207;-71
2023/07/04 06:14:40;;;;;;;4.32;3.92;;;21.10;99.90;;;;;;5051524;28;20257;-77
2023/07/04 06:17:07;;;;;;;5.20;4.70;;;21.20;99.90;;;;;;5052682;28;20242;-72
2023/07/04 06:19:36;;;;;;;7.63;4.43;;;21.20;99.90;;;;;;5069773;28;20224;-76
2023/07/04 06:22:05;;;;;;;9.52;4.45;;;21.20;99.90;;;;;;5065624;28;20701;-84
2023/07/04 06:24:32;;;;;;;5.72;3.92;;;21.20;99.90;;;;;;5070044;28;20242;-81
2023/07/04 06:26:59;;;;;;;5.57;4.82;;;21.30;99.90;;;;;;5068994;28;20581;-73
2023/07/04 06:29:26;;;;;;;6.15;4.65;;;21.60;99.90;;;;;;5069160;28;20241;-82
2023/07/04 06:31:53;;;;;;;9.07;7.18;;;21.90;99.90;;;;;;5070593;28;20242;-87
2023/07/04 06:34:20;;;;;;;4.82;4.32;;;22.10;99.90;;;;;;5063294;28;20279;-76
2023/07/04 06:36:49;;;;;;;6.78;5.25;;;22.10;99.90;;;;;;5051406;28;20709;-82
2023/07/04 06:39:16;;;;;;;5.60;4.70;;;21.90;99.90;;;;;;5056313;28;20272;-77
2023/07/04 06:41:45;;;;;;;4.55;4.03;;;21.70;99.90;;;;;;5057979;28;20646;-78
2023/07/04 06:44:12;;;;;;;5.20;4.53;;;21.50;99.90;;;;;;5052487;28;20249;-72
2023/07/04 06:46:41;;;;;;;8.38;5.63;;;21.50;99.90;;;;;;5052075;28;20243;-72
2023/07/04 06:49:08;;;;;;;5.30;4.75;;;21.50;99.90;;;;;;5057442;28;20639;-81
2023/07/04 06:51:34;;;;;;;5.93;5.25;;;21.80;99.90;;;;;;5058523;28;20260;-83
2023/07/04 06:54:03;;;;;;;5.45;4.95;;;22.20;99.90;;;;;;5056882;28;20291;-80
2023/07/04 06:56:31;;;;;;;5.72;5.10;;;22.30;99.90;;;;;;5058574;28;20206;-72
2023/07/04 06:58:58;;;;;;;7.18;5.22;;;22.10;99.90;;;;;;5066761;28;20238;-77
2023/07/04 07:01:26;;;;;;;5.75;5.03;;;22.00;99.90;;;;;;5061068;28;20211;-81
2023/07/04 07:03:54;;;;;;;7.32;5.22;;;22.00;99.90;;;;;;5063250;28;20721;-77
2023/07/04 07:06:21;;;;;;;6.88;5.68;;;22.20;99.90;;;;;;5051893;28;20828;-76
2023/07/04 07:08:48;;;;;;;5.53;5.03;;;22.20;99.90;;;;;;5061932;28;20623;-77
2023/07/04 07:11:18;;;;;;;6.85;5.50;;;22.20;99.90;;;;;;5058996;28;20292;-73
2023/07/04 07:13:46;;;;;;;6.72;5.45;;;22.20;99.90;;;;;;5056527;28;20299;-85
2023/07/04 07:16:14;;;;;;;6.15;5.55;;;22.40;99.90;;;;;;5070002;28;20681;-76
2023/07/04 07:18:43;;;;;;;7.82;5.18;;;22.30;99.90;;;;;;5059333;28;20287;-79
2023/07/04 07:21:12;;;;;;;8.20;5.55;;;22.30;99.90;;;;;;5058490;28;20246;-85
2023/07/04 07:23:39;;;;;;;7.22;5.18;;;22.50;99.90;;;;;;5057566;28;20264;-85
2023/07/04 07:26:09;;;;;;;6.15;5.53;;;22.80;99.90;;;;;;5064711;28;20237;-76
2023/07/04 07:28:39;;;;;;;5.45;4.57;;;23.30;99.90;;;;;;5051847;28;20234;-87
2023/07/04 07:31:08;;;;;;;9.70;6.72;;;23.10;99.90;;;;;;5058265;28;20209;-76
2023/07/04 07:33:37;;;;;;;6.72;4.97;;;23.30;99.90;;;;;;5065172;28;20248;-75
2023/07/04 07:36:10;;;;;;;8.68;5.93;;;23.20;99.90;;;;;;5052131;28;20242;-76
2023/07/04 07:38:37;;;;;;;6.07;5.43;;;23.40;99.90;;;;;;5056003;28;20213;-83
2023/07/04 07:41:05;;;;;;;6.85;5.55;;;23.40;99.90;;;;;;5053213;28;20270;-81
2023/07/04 07:43:32;;;;;;;5.85;5.22;;;23.60;99.90;;;;;;5057709;28;20233;-76
2023/07/04 07:46:00;;;;;;;6.22;4.55;;;23.70;99.90;;;;;;5064319;28;20226;-80
2023/07/04 07:48:27;;;;;;;7.55;5.80;;;23.90;99.90;;;;;;5063945;28;20237;-74
2023/07/04 07:50:54;;;;;;;6.57;4.80;;;24.10;99.90;;;;;;5058596;28;20296;-81
2023/07/04 07:53:21;;;;;;;5.38;4.88;;;24.10;99.90;;;;;;5055666;28;20210;-83
2023/07/04 07:55:48;;;;;;;7.30;5.13;;;24.30;99.90;;;;;;5059286;28;20242;-85
2023/07/04 07:58:15;;;;;;;7.50;4.53;;;24.20;99.90;;;;;;5057097;28;20242;-77
2023/07/04 08:00:42;;;;;;;5.65;5.10;;;24.30;99.90;;;;;;5055224;28;20229;-79
2023/07/04 08:03:10;;;;;;;8.82;5.57;;;24.50;99.90;;;;;;5049907;28;20677;-85
2023/07/04 08:05:39;;;;;;;5.93;5.07;;;24.70;99.90;;;;;;5054708;28;20242;-81
2023/07/04 08:08:06;;;;;;;5.80;5.15;;;24.90;99.90;;;;;;5049894;28;20624;-78
2023/07/04 08:10:36;;;;;;;5.38;4.88;;;24.80;99.90;;;;;;5055665;28;20238;-81
2023/07/04 08:13:03;;;;;;;5.78;4.30;;;25.10;99.90;;;;;;5058487;28;20689;-83
2023/07/04 08:15:30;;;;;;;7.90;5.50;;;25.10;99.90;;;;;;5063580;28;20236;-76
2023/07/04 08:17:57;;;;;;;6.20;5.00;;;25.10;99.90;;;;;;5057652;28;20234;-74
2023/07/04 08:20:25;;;;;;;5.30;4.80;;;25.00;99.90;;;;;;5056531;28;20234;-74
2023/07/04 08:22:52;;;;;;;5.93;5.00;;;25.20;99.90;;;;;;5056877;28;20238;-75
2023/07/04 08:25:19;;;;;;;7.68;5.22;;;25.30;99.90;;;;;;5054083;28;20736;-74
2023/07/04 08:27:46;;;;;;;7.10;4.70;;;25.30;99.90;;;;;;5064660;28;20238;-81
2023/07/04 08:30:13;;;;;;;5.55;4.47;;;25.50;99.90;;;;;;5066454;28;20248;-67
2023/07/04 08:32:40;;;;;;;8.43;5.78;;;25.70;99.90;;;;;;5060958;28;20250;-68
2023/07/04 08:35:08;;;;;;;5.72;5.10;;;25.90;99.90;;;;;;5059647;28;20251;-79
2023/07/04 08:37:36;;;;;;;6.18;5.40;;;26.00;99.90;;;;;;5053839;28;20207;-81
2023/07/04 08:40:04;;;;;;;7.18;5.03;;;26.00;99.90;;;;;;5057464;28;20665;-77
2023/07/04 08:42:35;;;;;;;6.22;4.68;;;25.90;99.90;;;;;;5059574;28;20253;-79
2023/07/04 08:45:02;;;;;;;5.82;4.78;;;25.60;99.90;;;;;;5054359;28;20757;-72
2023/07/04 08:47:32;;;;;;;5.30;4.80;;;25.70;99.90;;;;;;5053794;28;20214;-69
2023/07/04 08:50:04;;;;;;;9.05;4.75;;;25.60;99.90;;;;;;5059830;28;20230;-67
2023/07/04 08:52:38;;;;;;;8.20;5.53;;;25.40;99.90;;;;;;5052450;28;20234;-77
2023/07/04 08:55:11;;;;;;;5.82;5.25;;;25.60;99.90;;;;;;5052119;28;20238;-68
2023/07/04 08:57:43;;;;;;;5.90;5.05;;;25.90;99.90;;;;;;5051520;28;20245;-73
2023/07/04 09:00:14;;;;;;;9.98;6.13;;;25.70;99.90;;;;;;5052418;28;20230;-81
2023/07/04 09:03:00;;;;;;;6.03;5.18;;;25.90;99.90;;;;;;5052344;28;20638;-83
2023/07/04 09:05:35;;;;;;;8.88;6.22;;;26.20;99.90;;;;;;5053345;28;20266;-82
2023/07/04 09:08:09;;;;;;;5.45;4.97;;;27.30;99.90;;;;;;5052760;28;20204;-72
2023/07/04 09:10:42;;;;;;;7.25;5.65;;;28.10;99.90;;;;;;5062574;28;20211;-74
2023/07/04 09:13:12;;;;;;;6.15;4.43;;;28.50;99.90;;;;;;5056113;28;20242;-82
2023/07/04 09:15:43;;;;;;;6.15;4.97;;;27.70;99.90;;;;;;5067821;28;20630;-76
2023/07/04 09:18:18;;;;;;;6.55;4.82;;;28.90;99.90;;;;;;5057864;28;20240;-67
2023/07/04 09:20:49;;;;;;;6.60;4.68;;;28.80;99.90;;;;;;5055677;28;20677;-74
2023/07/04 09:23:21;;;;;;;5.03;4.57;;;27.30;99.90;;;;;;5059904;28;20206;-69
2023/07/04 09:25:50;;;;;;;6.45;4.55;;;27.20;99.90;;;;;;5056719;28;20249;-69
2023/07/04 09:28:17;;;;;;;7.30;5.30;;;27.30;99.90;;;;;;5062949;28;20212;-69
2023/07/04 09:30:44;;;;;;;5.55;4.97;;;27.40;99.90;;;;;;5067238;28;20258;-70
2023/07/04 09:33:14;;;;;;;13.77;5.65;;;28.20;99.90;;;;;;5070433;28;20302;-70
2023/07/04 09:35:42;;;;;;;11.10;5.35;;;28.80;99.90;;;;;;5064017;28;20214;-70
2023/07/04 09:38:09;;;;;;;10.40;5.65;;;28.90;99.90;;;;;;5061919;28;20669;-76
2023/07/04 09:40:45;;;;;;;28.85;7.13;;;30.20;99.90;;;;;;5071075;28;20202;-68
2023/07/04 09:43:27;;;;;;;10.73;5.25;;;29.10;99.90;;;;;;5071384;28;20201;-68
2023/07/04 09:46:20;;;;;;;5.90;4.80;;;27.80;99.90;;;;;;5066016;28;20720;-67
2023/07/04 09:48:47;;;;;;;5.43;4.93;;;28.10;99.90;;;;;;5071840;28;20244;-71
2023/07/04 09:51:25;;;;;;;5.93;4.22;;;27.20;99.90;;;;;;5071434;28;20342;-69
2023/07/04 09:54:07;;;;;;;6.15;5.50;;;26.90;99.90;;;;;;5071592;28;20205;-69
2023/07/04 09:56:34;;;;;;;5.40;4.85;;;27.00;99.90;;;;;;5071481;28;20664;-69
2023/07/04 09:59:15;;;;;;;6.22;4.28;;;26.90;99.90;;;;;;5070868;28;20241;-69
2023/07/04 10:01:44;;;;;;;5.07;4.57;;;26.70;99.90;;;;;;5070962;28;20712;-69
2023/07/04 10:04:12;;;;;;;4.65;4.25;;;26.50;99.90;;;;;;5071276;28;20320;-71
2023/07/04 10:06:43;;;;;;;5.40;4.78;;;26.40;99.90;;;;;;5066941;28;20237;-70
2023/07/04 10:09:18;;;;;;;7.53;4.65;;;26.40;99.90;;;;;;5068593;28;20198;-70
2023/07/04 10:11:47;;;;;;;8.25;5.40;;;26.30;99.90;;;;;;5053643;28;20203;-70
2023/07/04 10:14:16;;;;;;;7.35;4.35;;;26.40;99.90;;;;;;5065448;28;20210;-71
2023/07/04 10:16:50;;;;;;;7.15;5.05;;;26.40;99.90;;;;;;5068335;28;20198;-74
2023/07/04 10:19:20;;;;;;;5.13;4.57;;;26.40;99.90;;;;;;5065264;28;20202;-82
2023/07/04 10:21:50;;;;;;;5.88;4.05;;;26.60;99.90;;;;;;5070777;28;20233;-73
2023/07/04 10:24:20;;;;;;;6.60;4.57;;;26.90;99.90;;;;;;5062711;28;20222;-72
2023/07/04 10:26:49;;;;;;;6.78;5.63;;;26.90;99.90;;;;;;5062620;28;20203;-74
2023/07/04 10:29:21;;;;;;;5.78;4.80;;;27.10;99.90;;;;;;5060527;28;20203;-71
2023/07/04 10:31:49;;;;;;;5.80;4.25;;;26.90;99.90;;;;;;5062348;28;20678;-74
2023/07/04 10:34:19;;;;;;;5.38;4.80;;;26.70;99.90;;;;;;5056716;28;20257;-77
2023/07/04 10:36:49;;;;;;;5.05;4.28;;;26.70;99.90;;;;;;5063112;28;20241;-79
2023/07/04 10:39:17;;;;;;;7.80;3.95;;;27.00;99.90;;;;;;5058755;28;20705;-78
2023/07/04 10:41:52;;;;;;;7.07;4.88;;;27.10;99.90;;;;;;5056726;28;20202;-79
2023/07/04 10:44:23;;;;;;;6.70;4.07;;;27.10;99.90;;;;;;5069628;28;21101;-77
2023/07/04 10:46:56;;;;;;;5.53;4.68;;;27.00;99.90;;;;;;5055796;28;20207;-78
2023/07/04 10:49:26;;;;;;;6.40;4.53;;;27.00;99.90;;;;;;5052992;28;20206;-77
2023/07/04 10:52:00;;;;;;;6.60;5.03;;;26.70;99.90;;;;;;5051943;28;20292;-77
2023/07/04 10:54:27;;;;;;;6.25;5.05;;;26.40;99.90;;;;;;5052787;28;20218;-69
2023/07/04 10:56:59;;;;;;;5.13;4.63;;;26.50;99.90;;;;;;5057855;28;20237;-70
2023/07/04 10:59:33;;;;;;;6.95;5.75;;;26.50;99.90;;;;;;5054595;28;20636;-70
2023/07/04 11:02:06;;;;;;;4.80;4.30;;;26.70;99.90;;;;;;5050689;28;20230;-70
2023/07/04 11:04:38;;;;;;;5.63;5.10;;;27.00;99.90;;;;;;5050376;28;20262;-70
2023/07/04 11:07:09;;;;;;;5.47;4.97;;;27.90;99.90;;;;;;5051579;28;20213;-70
2023/07/04 11:09:40;;;;;;;5.55;5.00;;;28.00;99.90;;;;;;5070225;28;20685;-77
2023/07/04 11:12:09;;;;;;;5.50;4.78;;;27.90;99.90;;;;;;5063442;28;20630;-69
2023/07/04 11:14:40;;;;;;;6.05;4.82;;;27.90;99.90;;;;;;5063401;28;20688;-70
2023/07/04 11:17:12;;;;;;;7.95;5.03;;;28.00;99.90;;;;;;5069761;28;20563;-70
2023/07/04 11:19:54;;;;;;;7.47;5.40;;;27.90;99.90;;;;;;5064340;28;20234;-74
2023/07/04 11:22:21;;;;;;;7.57;4.75;;;27.60;99.90;;;;;;5061283;28;20240;-69
2023/07/04 11:24:53;;;;;;;6.00;4.97;;;27.30;99.90;;;;;;5069832;28;20327;-69
2023/07/04 11:27:24;;;;;;;6.28;5.63;;;27.00;99.90;;;;;;5062732;28;20267;-69
2023/07/04 11:29:55;;;;;;;5.28;4.30;;;26.80;99.90;;;;;;5060695;28;20256;-70
2023/07/04 11:32:27;;;;;;;6.03;5.07;;;26.60;99.90;;;;;;5064513;28;21408;-73
2023/07/04 11:35:01;;;;;;;5.80;5.20;;;26.80;99.90;;;;;;5061836;28;20222;-78
2023/07/04 11:37:33;;;;;;;4.97;4.32;;;26.70;99.90;;;;;;5059994;28;20405;-88
2023/07/04 11:40:11;;;;;;;8.20;5.75;;;26.70;99.90;;;;;;5069429;28;20640;-80
2023/07/04 11:42:44;;;;;;;6.78;4.68;;;26.80;99.90;;;;;;5065803;28;20666;-78
2023/07/04 11:45:16;;;;;;;5.13;4.38;;;26.90;99.90;;;;;;5068958;28;20226;-79
2023/07/04 11:47:47;;;;;;;6.47;5.15;;;26.80;99.90;;;;;;5058775;28;20945;-79
2023/07/04 11:50:18;;;;;;;5.53;5.00;;;26.80;99.90;;;;;;5054864;28;20733;-77
2023/07/04 11:52:55;;;;;;;4.85;4.22;;;26.90;99.90;;;;;;5059871;28;20290;-74
2023/07/04 11:55:29;;;;;;;5.53;5.00;;;26.80;99.90;;;;;;5058163;28;20245;-70
2023/07/04 11:58:02;;;;;;;4.50;4.03;;;26.70;99.90;;;;;;5072490;28;20210;-73
2023/07/04 12:01:03;;;;;;;5.55;4.75;;;26.70;99.90;;;;;;5057903;28;20590;-71
2023/07/04 12:03:58;;;;;;;7.93;5.25;;;26.70;99.90;;;;;;5060550;28;20199;-75
2023/07/04 12:07:04;;;;;;;5.75;5.07;;;26.70;99.90;;;;;;5067169;28;20240;-73
2023/07/04 12:09:37;;;;;;;5.18;4.63;;;26.80;99.90;;;;;;5062391;28;20237;-73
2023/07/04 12:12:07;;;;;;;6.05;4.63;;;26.80;99.90;;;;;;5051563;28;20199;-69
2023/07/04 12:14:38;;;;;;;5.82;5.15;;;27.00;99.90;;;;;;5068236;28;20267;-70
2023/07/04 12:17:07;;;;;;;6.80;4.70;;;27.30;99.90;;;;;;5069868;28;20239;-70
2023/07/04 12:19:34;;;;;;;5.68;4.18;;;27.40;99.90;;;;;;5061315;28;20733;-71
2023/07/04 12:22:01;;;;;;;5.20;4.50;;;27.50;99.90;;;;;;5067149;28;20287;-71
2023/07/04 12:24:30;;;;;;;5.68;5.18;;;27.60;99.90;;;;;;5060651;28;20203;-72
2023/07/04 12:26:59;;;;;;;6.18;4.75;;;27.60;99.90;;;;;;5059488;28;20272;-75
2023/07/04 12:29:27;;;;;;;5.90;4.60;;;27.80;99.90;;;;;;5053184;28;20229;-72
2023/07/04 12:32:13;;;;;;;4.93;4.40;;;27.70;99.90;;;;;;5053190;28;20310;-79
2023/07/04 12:34:42;;;;;;;6.63;3.97;;;27.60;99.90;;;;;;5052905;28;20249;-80
2023/07/04 12:37:14;;;;;;;5.82;5.32;;;27.40;99.90;;;;;;5052848;28;20203;-76
2023/07/04 12:39:47;;;;;;;4.70;4.18;;;27.00;99.90;;;;;;5052979;28;20206;-75
2023/07/04 12:42:21;;;;;;;5.95;4.60;;;26.60;99.90;;;;;;5065290;28;20368;-82
2023/07/04 12:44:48;;;;;;;4.68;4.28;;;26.40;99.90;;;;;;5063457;28;20260;-79
2023/07/04 12:47:21;;;;;;;4.55;3.95;;;26.40;99.90;;;;;;5056646;28;20246;-81
2023/07/04 12:49:50;;;;;;;5.40;4.80;;;26.30;99.90;;;;;;5064352;28;20202;-77
2023/07/04 12:52:17;;;;;;;7.15;5.05;;;26.20;99.90;;;;;;5057973;28;20659;-74
2023/07/04 12:54:45;;;;;;;5.20;4.70;;;26.20;99.90;;;;;;5067390;28;20289;-74
2023/07/04 12:57:17;;;;;;;7.18;4.85;;;26.30;99.90;;;;;;5061630;28;20260;-72